Time;durP1;ratioP1;P1;durP2;ratioP2;P2;SDS_P1;SDS_P2;PMS_P1;PMS_P2;Temp;Humidity;BMP_temperature;BMP_pressure;BME280_temperature;BME280_humidity;BME280_pressure;Samples;Min_cycle;Max_cycle;Signal;HPM_P1;HPM_P2
2023/07/10 00:01:27;;;;;;;10.15;4.18;;;21.60;82.80;;;;;;5070432;28;20025;-74
2023/07/10 00:03:53;;;;;;;9.35;4.90;;;21.60;82.80;;;;;;5072813;28;20021;-74
2023/07/10 00:06:19;;;;;;;9.48;3.80;;;21.60;83.20;;;;;;5065622;28;20024;-74
2023/07/10 00:08:45;;;;;;;5.43;3.35;;;21.60;83.50;;;;;;5065358;28;20377;-74
2023/07/10 00:11:26;;;;;;;12.45;3.78;;;21.60;83.30;;;;;;5064731;28;20016;-74
2023/07/10 00:13:51;;;;;;;9.18;4.07;;;21.50;83.40;;;;;;5067252;28;20020;-74
2023/07/10 00:16:20;;;;;;;12.30;3.42;;;21.50;83.30;;;;;;5066154;28;20088;-74
2023/07/10 00:18:47;;;;;;;8.97;3.73;;;21.60;83.30;;;;;;5067990;28;20484;-74
2023/07/10 00:21:13;;;;;;;14.98;3.75;;;21.60;83.30;;;;;;5064949;28;20082;-74
2023/07/10 00:23:38;;;;;;;9.90;3.95;;;21.50;83.20;;;;;;5063229;28;20481;-74
2023/07/10 00:26:25;;;;;;;6.75;3.83;;;21.60;83.40;;;;;;5061755;28;20558;-74
2023/07/10 00:28:53;;;;;;;8.02;3.72;;;21.60;83.50;;;;;;5057793;28;20056;-74
2023/07/10 00:31:19;;;;;;;8.55;4.18;;;21.50;84.30;;;;;;5072843;28;20026;-74
2023/07/10 00:33:48;;;;;;;7.88;3.63;;;21.60;83.60;;;;;;5061247;28;20091;-74
2023/07/10 00:36:32;;;;;;;8.52;4.15;;;21.50;83.50;;;;;;5064631;28;20032;-74
2023/07/10 00:39:26;;;;;;;15.18;4.38;;;21.60;83.60;;;;;;5062954;28;20033;-74
2023/07/10 00:41:59;;;;;;;8.77;4.32;;;21.50;83.70;;;;;;5059838;28;20366;-74
2023/07/10 00:44:32;;;;;;;10.63;3.88;;;21.50;83.70;;;;;;5058342;28;20072;-74
2023/07/10 00:47:05;;;;;;;6.95;3.85;;;21.50;83.80;;;;;;5065239;28;20572;-74
2023/07/10 00:49:47;;;;;;;10.77;4.60;;;21.50;83.80;;;;;;5067313;28;20013;-74
2023/07/10 00:52:19;;;;;;;13.90;4.28;;;21.50;84.00;;;;;;5062298;28;20035;-74
2023/07/10 00:54:49;;;;;;;10.45;4.80;;;21.50;84.00;;;;;;5058778;28;20131;-74
2023/07/10 00:57:18;;;;;;;;;;;21.50;84.00;;;;;;5058532;28;20024;-74
2023/07/10 00:59:44;;;;;;;6.35;3.63;;;21.50;84.10;;;;;;5058562;28;19909;-74
2023/07/10 01:02:13;;;;;;;10.32;4.18;;;21.50;84.00;;;;;;5068398;28;20016;-74
2023/07/10 01:04:41;;;;;;;8.43;4.22;;;21.50;84.00;;;;;;5066738;28;20358;-74
2023/07/10 01:07:15;;;;;;;10.82;4.47;;;21.50;84.10;;;;;;5066375;28;20149;-74
2023/07/10 01:09:50;;;;;;;12.52;3.80;;;21.50;84.10;;;;;;5060272;28;20036;-74
2023/07/10 01:12:17;;;;;;;7.88;4.22;;;21.40;84.00;;;;;;5061420;28;20021;-74
2023/07/10 01:14:43;;;;;;;15.35;4.50;;;21.50;84.10;;;;;;5062513;28;20078;-74
2023/07/10 01:17:09;;;;;;;13.35;4.85;;;21.50;84.20;;;;;;5067136;28;20115;-74
2023/07/10 01:19:36;;;;;;;8.48;4.45;;;21.40;84.10;;;;;;5071752;28;20059;-74
2023/07/10 01:22:04;;;;;;;10.10;4.40;;;21.50;84.20;;;;;;5060290;28;20470;-74
2023/07/10 01:24:30;;;;;;;9.95;4.40;;;21.50;84.30;;;;;;5057022;28;20644;-74
2023/07/10 01:26:56;;;;;;;13.00;4.43;;;21.40;84.20;;;;;;5057582;28;20082;-74
2023/07/10 01:29:22;;;;;;;9.00;4.15;;;21.50;84.30;;;;;;5056197;28;20048;-74
2023/07/10 01:31:52;;;;;;;12.05;4.07;;;21.40;84.50;;;;;;5055209;28;20106;-74
2023/07/10 01:34:20;;;;;;;6.45;3.70;;;21.50;84.50;;;;;;5062562;28;20074;-74
2023/07/10 01:36:48;;;;;;;10.15;4.30;;;21.50;84.50;;;;;;5066527;28;20051;-74
2023/07/10 01:39:13;;;;;;;10.00;4.03;;;21.40;84.40;;;;;;5059918;28;20028;-74
2023/07/10 01:41:45;;;;;;;8.55;3.60;;;21.40;84.40;;;;;;5045779;28;20385;-73
2023/07/10 01:44:35;;;;;;;12.77;4.05;;;21.50;84.50;;;;;;5059040;28;20031;-74
2023/07/10 01:47:03;;;;;;;8.75;3.90;;;21.40;84.60;;;;;;5057352;28;20017;-74
2023/07/10 01:49:45;;;;;;;8.10;4.50;;;21.30;84.50;;;;;;5065208;28;20036;-74
2023/07/10 01:52:13;;;;;;;8.75;4.25;;;21.40;84.60;;;;;;5063647;28;20028;-74
2023/07/10 01:54:39;;;;;;;8.20;3.85;;;21.40;84.60;;;;;;5058739;28;20405;-74
2023/07/10 01:57:06;;;;;;;6.40;4.03;;;21.40;84.50;;;;;;5063269;28;20089;-74
2023/07/10 01:59:32;;;;;;;8.30;3.50;;;21.40;84.60;;;;;;5059370;28;20048;-74
2023/07/10 02:01:58;;;;;;;8.98;3.83;;;21.40;84.50;;;;;;5064115;28;20481;-74
2023/07/10 02:04:25;;;;;;;5.82;3.40;;;21.40;85.40;;;;;;5058587;28;20017;-74
2023/07/10 02:06:54;;;;;;;9.32;3.90;;;21.40;84.80;;;;;;5062113;28;20600;-74
2023/07/10 02:09:21;;;;;;;13.85;3.47;;;21.40;84.80;;;;;;5063626;28;20113;-74
2023/07/10 02:11:46;;;;;;;8.85;4.68;;;21.40;85.50;;;;;;5063120;28;20086;-74
2023/07/10 02:14:12;;;;;;;6.70;3.95;;;21.40;84.80;;;;;;5063362;28;20017;-74
2023/07/10 02:16:37;;;;;;;8.38;4.25;;;21.40;84.80;;;;;;5062197;28;20388;-74
2023/07/10 02:19:05;;;;;;;9.55;4.50;;;21.40;84.80;;;;;;5062412;28;20032;-74
2023/07/10 02:21:31;;;;;;;11.65;3.72;;;21.30;84.80;;;;;;5047480;28;20029;-74
2023/07/10 02:23:57;;;;;;;12.77;3.83;;;21.30;84.80;;;;;;5041414;28;20536;-74
2023/07/10 02:26:23;;;;;;;9.85;4.00;;;21.30;84.80;;;;;;5040247;28;20033;-74
2023/07/10 02:28:48;;;;;;;16.15;4.28;;;21.40;85.00;;;;;;5044658;28;20029;-74
2023/07/10 02:31:14;;;;;;;8.43;4.50;;;21.40;85.00;;;;;;5042800;28;20032;-74
2023/07/10 02:33:39;;;;;;;11.23;4.30;;;21.40;85.00;;;;;;5042975;28;20035;-74
2023/07/10 02:36:05;;;;;;;6.68;3.97;;;21.40;85.00;;;;;;5045711;28;20064;-74
2023/07/10 02:38:32;;;;;;;11.02;4.22;;;21.30;84.90;;;;;;5035273;28;20440;-74
2023/07/10 02:40:58;;;;;;;10.38;4.15;;;21.30;84.90;;;;;;5045223;28;20078;-74
2023/07/10 02:43:24;;;;;;;11.07;4.40;;;21.30;84.90;;;;;;5045110;28;20021;-74
2023/07/10 02:45:50;;;;;;;8.30;4.00;;;21.30;84.90;;;;;;5042622;28;20022;-74
2023/07/10 02:48:15;;;;;;;6.22;3.95;;;21.30;84.90;;;;;;5041883;28;20025;-74
2023/07/10 02:50:42;;;;;;;17.65;4.32;;;21.30;84.90;;;;;;5040335;28;20047;-74
2023/07/10 02:53:08;;;;;;;8.32;3.97;;;21.30;84.90;;;;;;5038591;28;20493;-74
2023/07/10 02:55:34;;;;;;;7.53;4.10;;;21.30;85.00;;;;;;5037627;28;20025;-74
2023/07/10 02:58:01;;;;;;;8.32;4.03;;;21.30;85.00;;;;;;5045789;28;20040;-74
2023/07/10 03:00:27;;;;;;;9.93;4.45;;;21.30;85.30;;;;;;5040397;28;20171;-74
2023/07/10 03:02:54;;;;;;;7.07;3.95;;;21.30;85.00;;;;;;5040491;28;20104;-74
2023/07/10 03:05:21;;;;;;;7.93;3.70;;;21.30;85.00;;;;;;5039342;28;20590;-74
2023/07/10 03:07:46;;;;;;;5.63;3.35;;;21.30;85.00;;;;;;5044318;28;20379;-74
2023/07/10 03:10:12;;;;;;;6.50;3.47;;;21.30;85.80;;;;;;5032599;28;20021;-74
2023/07/10 03:12:37;;;;;;;9.65;3.58;;;21.30;85.10;;;;;;5044860;28;20036;-74
2023/07/10 03:15:04;;;;;;;9.02;3.90;;;21.30;85.10;;;;;;5047452;28;20030;-74
2023/07/10 03:17:31;;;;;;;6.55;3.58;;;21.30;85.10;;;;;;5045102;28;20082;-74
2023/07/10 03:19:57;;;;;;;7.90;3.80;;;21.30;85.20;;;;;;5038165;28;20036;-74
2023/07/10 03:22:22;;;;;;;6.93;3.95;;;21.30;85.20;;;;;;5040441;28;20063;-74
2023/07/10 03:24:50;;;;;;;10.20;4.25;;;21.30;85.30;;;;;;5039322;28;20052;-74
2023/07/10 03:27:16;;;;;;;7.15;3.60;;;21.30;85.40;;;;;;5045281;28;20017;-74
2023/07/10 03:29:42;;;;;;;13.38;4.18;;;21.30;85.30;;;;;;5047526;28;20543;-74
2023/07/10 03:32:08;;;;;;;7.97;4.15;;;21.30;85.40;;;;;;5023513;28;20031;-74
2023/07/10 03:34:36;;;;;;;10.80;3.88;;;21.30;85.40;;;;;;5042396;28;20032;-73
2023/07/10 03:37:03;;;;;;;7.55;3.63;;;21.30;85.50;;;;;;5042314;28;20022;-74
2023/07/10 03:39:29;;;;;;;7.88;3.78;;;21.30;85.50;;;;;;5045620;28;20470;-74
2023/07/10 03:41:55;;;;;;;8.45;3.63;;;21.30;85.50;;;;;;5044395;28;20100;-74
2023/07/10 03:44:21;;;;;;;15.00;4.85;;;21.30;85.60;;;;;;5043722;28;20032;-75
2023/07/10 03:46:46;;;;;;;8.48;3.97;;;21.30;85.50;;;;;;5047289;28;20505;-74
2023/07/10 03:49:12;;;;;;;9.65;4.32;;;21.20;85.50;;;;;;5046588;28;20067;-74
2023/07/10 03:51:38;;;;;;;10.38;3.92;;;21.30;85.70;;;;;;5047713;28;20044;-74
2023/07/10 03:54:05;;;;;;;8.85;4.45;;;21.30;85.70;;;;;;5046956;28;20450;-74
2023/07/10 03:56:31;;;;;;;12.73;3.75;;;21.30;85.70;;;;;;5045804;28;20083;-75
2023/07/10 03:58:56;;;;;;;15.27;4.10;;;21.30;85.60;;;;;;5045241;28;20083;-74
2023/07/10 04:01:23;;;;;;;8.63;4.15;;;21.30;85.70;;;;;;5049272;28;20096;-74
2023/07/10 04:03:48;;;;;;;13.95;4.03;;;21.30;85.70;;;;;;5043916;28;20029;-74
2023/07/10 04:06:17;;;;;;;11.50;4.35;;;21.30;85.70;;;;;;5044967;28;20024;-74
2023/07/10 04:08:45;;;;;;;10.30;3.92;;;21.30;85.70;;;;;;5047897;28;20060;-74
2023/07/10 04:11:22;;;;;;;10.57;4.05;;;21.30;85.70;;;;;;5049303;28;20021;-75
2023/07/10 04:13:49;;;;;;;12.75;4.68;;;21.30;85.70;;;;;;5049158;28;20021;-74
2023/07/10 04:16:24;;;;;;;11.48;3.70;;;21.30;85.70;;;;;;5044130;28;20037;-74
2023/07/10 04:18:51;;;;;;;9.30;3.80;;;21.30;85.70;;;;;;5047169;28;20044;-74
2023/07/10 04:21:18;;;;;;;21.25;5.15;;;21.30;85.70;;;;;;5033334;28;20451;-75
2023/07/10 04:23:44;;;;;;;10.88;4.25;;;21.20;85.70;;;;;;5046113;28;20025;-74
2023/07/10 04:26:22;;;;;;;12.25;4.70;;;21.30;85.80;;;;;;5041382;28;20013;-74
2023/07/10 04:28:50;;;;;;;12.35;3.90;;;21.20;85.80;;;;;;5046178;28;20477;-75
2023/07/10 04:31:17;;;;;;;6.15;3.95;;;21.20;85.80;;;;;;5042183;28;20032;-74
2023/07/10 04:33:43;;;;;;;9.50;3.95;;;21.20;85.80;;;;;;5048843;28;20093;-75
2023/07/10 04:36:08;;;;;;;12.07;3.80;;;21.20;85.80;;;;;;5043970;28;20032;-74
2023/07/10 04:38:34;;;;;;;10.85;4.32;;;21.20;85.80;;;;;;5045201;28;20104;-74
2023/07/10 04:41:03;;;;;;;11.98;4.45;;;21.20;85.80;;;;;;5040429;28;20029;-74
2023/07/10 04:43:31;;;;;;;8.25;3.83;;;21.20;85.90;;;;;;5029626;28;20377;-74
2023/07/10 04:45:59;;;;;;;13.07;4.10;;;21.20;85.90;;;;;;5046867;28;20033;-75
2023/07/10 04:48:24;;;;;;;9.88;3.70;;;21.20;85.90;;;;;;5049177;28;20049;-74
2023/07/10 04:50:52;;;;;;;10.27;3.88;;;21.20;85.90;;;;;;5043677;28;20087;-74
2023/07/10 04:53:18;;;;;;;9.05;3.67;;;21.20;86.00;;;;;;5044065;28;20040;-73
2023/07/10 04:55:46;;;;;;;6.40;3.47;;;21.20;85.90;;;;;;5043005;28;20017;-73
2023/07/10 04:58:12;;;;;;;13.57;3.70;;;21.20;86.50;;;;;;5048421;28;20037;-73
2023/07/10 05:00:37;;;;;;;8.68;3.70;;;21.20;85.90;;;;;;5048675;28;20028;-73
2023/07/10 05:03:04;;;;;;;14.77;4.03;;;21.20;85.80;;;;;;5045740;28;20513;-73
2023/07/10 05:05:30;;;;;;;8.80;3.72;;;21.20;85.80;;;;;;5050115;28;20482;-73
2023/07/10 05:07:55;;;;;;;14.60;3.33;;;21.20;85.70;;;;;;5045333;28;20036;-73
2023/07/10 05:10:21;;;;;;;12.27;3.58;;;21.20;86.50;;;;;;5046923;28;20036;-73
2023/07/10 05:12:49;;;;;;;11.18;3.13;;;21.20;85.60;;;;;;5043794;28;20024;-73
2023/07/10 05:15:15;;;;;;;11.63;3.72;;;21.20;85.40;;;;;;5047743;28;20033;-73
2023/07/10 05:17:41;;;;;;;7.00;3.42;;;21.20;85.30;;;;;;5045814;28;20111;-73
2023/07/10 05:20:08;;;;;;;10.07;4.05;;;21.20;85.00;;;;;;5041177;28;20036;-74
2023/07/10 05:22:33;;;;;;;8.38;3.35;;;21.20;85.20;;;;;;5048576;28;20402;-73
2023/07/10 05:24:59;;;;;;;9.18;4.57;;;21.20;85.40;;;;;;5047857;28;20025;-74
2023/07/10 05:27:25;;;;;;;11.25;3.45;;;21.20;85.80;;;;;;5046386;28;20032;-75
2023/07/10 05:29:51;;;;;;;5.28;3.10;;;21.20;85.50;;;;;;5043185;28;20477;-74
2023/07/10 05:32:16;;;;;;;8.73;4.28;;;21.20;85.80;;;;;;5027314;28;20036;-73
2023/07/10 05:34:42;;;;;;;8.40;3.80;;;21.30;86.20;;;;;;5038589;28;20033;-74
2023/07/10 05:37:08;;;;;;;7.93;3.78;;;21.30;86.00;;;;;;5039805;28;20079;-73
2023/07/10 05:39:34;;;;;;;8.85;3.45;;;21.20;87.10;;;;;;5046589;28;20036;-73
2023/07/10 05:42:00;;;;;;;14.30;4.10;;;21.20;86.10;;;;;;5044127;28;20029;-73
2023/07/10 05:44:26;;;;;;;7.90;3.70;;;21.20;86.10;;;;;;5048010;28;20024;-73
2023/07/10 05:46:51;;;;;;;7.65;4.03;;;21.20;86.50;;;;;;5044570;28;20022;-73
2023/07/10 05:49:17;;;;;;;6.20;3.63;;;21.20;86.80;;;;;;5042614;28;20025;-73
2023/07/10 05:51:43;;;;;;;10.18;4.25;;;21.20;87.20;;;;;;5045850;28;20025;-73
2023/07/10 05:54:09;;;;;;;14.35;4.22;;;21.30;86.80;;;;;;5048849;28;20032;-73
2023/07/10 05:56:34;;;;;;;12.15;3.58;;;21.20;87.10;;;;;;5048942;28;20021;-73
2023/07/10 05:59:01;;;;;;;8.18;4.10;;;21.20;87.00;;;;;;5046500;28;20028;-73
2023/07/10 06:01:27;;;;;;;11.82;3.28;;;21.20;86.60;;;;;;5047133;28;20070;-73
2023/07/10 06:03:53;;;;;;;10.32;4.30;;;21.20;86.70;;;;;;5047273;28;20104;-73
2023/07/10 06:06:36;;;;;;;6.85;3.13;;;21.30;87.10;;;;;;5041842;28;20022;-73
2023/07/10 06:09:02;;;;;;;10.30;4.18;;;21.30;86.60;;;;;;5040691;28;20029;-74
2023/07/10 06:11:27;;;;;;;9.23;4.32;;;21.30;87.30;;;;;;5045581;28;20025;-73
2023/07/10 06:13:53;;;;;;;8.60;4.03;;;21.20;87.30;;;;;;5047808;28;20025;-73
2023/07/10 06:16:18;;;;;;;8.88;3.90;;;21.30;87.30;;;;;;5049278;28;20092;-74
2023/07/10 06:18:47;;;;;;;15.13;4.45;;;21.30;87.20;;;;;;5044384;28;20032;-74
2023/07/10 06:21:13;;;;;;;15.63;3.65;;;21.30;87.50;;;;;;5041250;28;20462;-73
2023/07/10 06:23:38;;;;;;;12.52;4.28;;;21.30;88.00;;;;;;5047194;28;20036;-74
2023/07/10 06:26:05;;;;;;;6.70;3.33;;;21.30;86.70;;;;;;5039419;28;20478;-75
2023/07/10 06:28:32;;;;;;;12.75;5.22;;;21.30;86.80;;;;;;5037243;28;20029;-75
2023/07/10 06:31:04;;;;;;;9.07;4.38;;;21.20;87.50;;;;;;5041183;28;20036;-74
2023/07/10 06:33:31;;;;;;;15.88;4.18;;;21.30;88.10;;;;;;5045120;28;20029;-74
2023/07/10 06:35:57;;;;;;;11.52;4.55;;;21.30;88.60;;;;;;5041078;28;20026;-75
2023/07/10 06:38:23;;;;;;;8.38;4.60;;;21.20;89.30;;;;;;5043926;28;20567;-75
2023/07/10 06:40:49;;;;;;;10.23;4.25;;;21.20;90.00;;;;;;5044643;28;20038;-74
2023/07/10 06:43:16;;;;;;;12.20;4.40;;;21.20;90.10;;;;;;5049085;28;20078;-75
2023/07/10 06:45:43;;;;;;;18.23;5.25;;;21.20;89.50;;;;;;5041995;28;20090;-74
2023/07/10 06:48:09;;;;;;;13.85;5.60;;;21.20;90.20;;;;;;5040356;28;20026;-74
2023/07/10 06:50:35;;;;;;;13.88;5.90;;;21.20;90.40;;;;;;5027060;28;20112;-74
2023/07/10 06:53:01;;;;;;;16.70;6.43;;;21.20;90.00;;;;;;5040035;28;20082;-74
2023/07/10 06:55:26;;;;;;;15.85;5.30;;;21.20;90.00;;;;;;5042690;28;20080;-75
2023/07/10 06:57:52;;;;;;;13.32;5.63;;;21.20;90.20;;;;;;5040448;28;20056;-74
2023/07/10 07:00:18;;;;;;;12.25;4.85;;;21.20;90.20;;;;;;5047563;28;20033;-75
2023/07/10 07:02:44;;;;;;;13.40;5.10;;;21.20;90.30;;;;;;5042357;28;20045;-74
2023/07/10 07:05:10;;;;;;;11.45;5.70;;;21.20;90.30;;;;;;5037694;28;20052;-75
2023/07/10 07:07:37;;;;;;;15.75;5.57;;;21.20;90.30;;;;;;5038623;28;20033;-75
2023/07/10 07:10:13;;;;;;;9.85;5.35;;;21.20;90.40;;;;;;5035479;28;20505;-75
2023/07/10 07:12:40;;;;;;;12.75;4.88;;;21.30;90.50;;;;;;5039308;28;20029;-75
2023/07/10 07:15:06;;;;;;;8.52;4.85;;;21.20;90.60;;;;;;5043066;28;20024;-75
2023/07/10 07:17:32;;;;;;;12.38;5.25;;;21.20;90.80;;;;;;5042225;28;20049;-75
2023/07/10 07:19:58;;;;;;;7.03;4.43;;;21.30;90.90;;;;;;5041782;28;20056;-75
2023/07/10 07:22:23;;;;;;;13.30;4.43;;;21.20;90.70;;;;;;5061523;28;20040;-75
2023/07/10 07:24:49;;;;;;;8.50;4.45;;;21.30;91.10;;;;;;5066947;28;20100;-75
2023/07/10 07:27:14;;;;;;;7.60;4.20;;;21.30;91.50;;;;;;5070424;28;20016;-75
2023/07/10 07:29:40;;;;;;;9.63;4.68;;;21.30;91.00;;;;;;5063993;28;20060;-75
2023/07/10 07:32:08;;;;;;;14.00;4.85;;;21.30;91.30;;;;;;5065266;28;20021;-75
2023/07/10 07:34:34;;;;;;;11.18;5.00;;;21.30;91.20;;;;;;5072312;28;20479;-75
2023/07/10 07:36:59;;;;;;;16.88;4.85;;;21.30;91.10;;;;;;5069693;28;20036;-75
2023/07/10 07:39:30;;;;;;;8.55;4.20;;;21.30;90.50;;;;;;5072676;28;20032;-75
2023/07/10 07:41:56;;;;;;;20.92;3.30;;;21.30;90.30;;;;;;5072412;28;20365;-74
2023/07/10 07:44:22;;;;;;;7.18;4.15;;;21.30;91.10;;;;;;5067723;28;20020;-73
2023/07/10 07:46:47;;;;;;;15.57;4.53;;;21.30;90.90;;;;;;5069670;28;20107;-73
2023/07/10 07:49:13;;;;;;;9.00;3.58;;;21.30;92.60;;;;;;5067292;28;20020;-74
2023/07/10 07:51:38;;;;;;;8.50;4.13;;;21.20;93.40;;;;;;5062452;28;20028;-73
2023/07/10 07:54:12;;;;;;;8.75;3.95;;;21.20;92.90;;;;;;5070617;28;20028;-73
2023/07/10 07:56:38;;;;;;;11.65;5.15;;;21.20;92.80;;;;;;5075650;28;20043;-73
2023/07/10 07:59:04;;;;;;;9.55;4.30;;;21.20;92.70;;;;;;5071993;28;20056;-74
2023/07/10 08:01:29;;;;;;;11.43;4.18;;;21.20;92.20;;;;;;5072808;28;20065;-74
2023/07/10 08:03:56;;;;;;;10.80;4.43;;;21.30;92.90;;;;;;5073366;28;20025;-73
2023/07/10 08:06:25;;;;;;;7.00;4.03;;;21.30;92.40;;;;;;5074916;28;20612;-73
2023/07/10 08:08:50;;;;;;;9.68;4.00;;;21.30;92.50;;;;;;5077124;28;20035;-73
2023/07/10 08:11:17;;;;;;;10.63;4.25;;;21.30;92.70;;;;;;5077966;28;20407;-73
2023/07/10 08:13:43;;;;;;;11.40;4.68;;;21.30;92.50;;;;;;5065102;28;20128;-73
2023/07/10 08:16:08;;;;;;;11.13;5.40;;;21.30;92.70;;;;;;5072607;28;20523;-73
2023/07/10 08:18:34;;;;;;;11.05;4.00;;;21.30;92.50;;;;;;5071767;28;20047;-73
2023/07/10 08:21:02;;;;;;;8.25;4.20;;;21.30;92.50;;;;;;5075965;28;20554;-73
2023/07/10 08:23:27;;;;;;;10.38;5.00;;;21.40;93.70;;;;;;5078351;28;20081;-73
2023/07/10 08:25:53;;;;;;;9.05;4.65;;;21.40;93.40;;;;;;5070929;28;20057;-74
2023/07/10 08:28:18;;;;;;;11.48;4.38;;;21.40;93.40;;;;;;5070374;28;20032;-73
2023/07/10 08:30:44;;;;;;;11.25;4.47;;;21.40;93.60;;;;;;5074457;28;20028;-74
2023/07/10 08:33:10;;;;;;;12.25;4.85;;;21.40;93.90;;;;;;5069095;28;20121;-74
2023/07/10 08:35:36;;;;;;;7.35;4.53;;;21.40;93.40;;;;;;5072590;28;20508;-73
2023/07/10 08:38:02;;;;;;;24.70;5.00;;;21.40;93.30;;;;;;5077102;28;20025;-73
2023/07/10 08:40:33;;;;;;;14.65;4.88;;;21.50;93.20;;;;;;5073845;28;20037;-74
2023/07/10 08:43:06;;;;;;;12.68;5.00;;;21.50;93.40;;;;;;5075491;28;20016;-74
2023/07/10 08:45:35;;;;;;;8.63;4.95;;;21.50;93.10;;;;;;5071683;28;20473;-73
2023/07/10 08:48:21;;;;;;;11.85;5.28;;;21.50;92.80;;;;;;5069676;28;20146;-73
2023/07/10 08:50:47;;;;;;;8.43;4.72;;;21.50;93.40;;;;;;5070946;28;20588;-74
2023/07/10 08:53:19;;;;;;;7.45;4.82;;;21.60;93.40;;;;;;5067721;28;20028;-74
2023/07/10 08:56:00;;;;;;;19.40;4.72;;;21.60;93.60;;;;;;5070608;28;20474;-74
2023/07/10 08:58:33;;;;;;;8.02;4.55;;;21.60;93.90;;;;;;5068704;28;20098;-74
2023/07/10 09:01:02;;;;;;;11.15;4.65;;;21.60;93.90;;;;;;5066260;28;20032;-72
2023/07/10 09:03:36;;;;;;;8.88;4.53;;;21.70;95.80;;;;;;5068933;28;20081;-73
2023/07/10 09:06:03;;;;;;;7.80;5.03;;;21.80;96.40;;;;;;5065952;28;20339;-73
2023/07/10 09:08:32;;;;;;;15.45;4.78;;;22.00;97.00;;;;;;5069869;28;20037;-72
2023/07/10 09:11:02;;;;;;;9.95;5.18;;;22.00;96.90;;;;;;5070794;28;20027;-72
2023/07/10 09:13:38;;;;;;;12.07;5.15;;;22.10;96.60;;;;;;5073302;28;20031;-74
2023/07/10 09:16:14;;;;;;;9.35;4.82;;;22.10;97.30;;;;;;5066067;28;20021;-80
2023/07/10 09:18:47;;;;;;;7.72;4.72;;;22.20;97.20;;;;;;5067039;28;20016;-79
2023/07/10 09:21:28;;;;;;;16.52;4.68;;;22.00;96.90;;;;;;5046932;28;20030;-79
2023/07/10 09:23:55;;;;;;;10.85;5.18;;;21.90;96.40;;;;;;5034760;28;20619;-80
2023/07/10 09:26:26;;;;;;;7.90;4.25;;;21.80;95.90;;;;;;5026634;28;20385;-79
2023/07/10 09:29:10;;;;;;;11.15;4.43;;;21.80;95.60;;;;;;5037019;28;20013;-78
2023/07/10 09:32:20;;;;;;;6.47;4.20;;;21.70;95.20;;;;;;5045477;28;20029;-79
2023/07/10 09:34:58;;;;;;;10.90;4.85;;;21.70;95.30;;;;;;5016794;28;20436;-79
2023/07/10 09:37:32;;;;;;;6.65;3.58;;;21.70;94.90;;;;;;5037199;28;20096;-78
2023/07/10 09:40:39;;;;;;;10.77;4.10;;;21.70;94.70;;;;;;5036030;28;20427;-80
2023/07/10 09:43:19;;;;;;;6.20;3.75;;;21.70;94.60;;;;;;5027071;28;20064;-78
2023/07/10 09:45:48;;;;;;;6.72;3.70;;;21.70;94.70;;;;;;5032196;28;20489;-79
2023/07/10 09:48:32;;;;;;;14.02;4.00;;;21.70;94.30;;;;;;5037639;28;20042;-79
2023/07/10 09:51:03;;;;;;;10.38;4.07;;;21.70;94.70;;;;;;5039720;28;20018;-79
2023/07/10 09:53:51;;;;;;;7.47;3.47;;;21.70;94.10;;;;;;5036197;28;20156;-78
2023/07/10 09:56:35;;;;;;;13.65;4.55;;;21.70;94.10;;;;;;5043398;28;20029;-77
2023/07/10 09:59:02;;;;;;;6.32;4.07;;;21.70;94.30;;;;;;5039336;28;20031;-78
2023/07/10 10:01:30;;;;;;;6.82;4.25;;;21.70;94.00;;;;;;5047562;28;20020;-78
2023/07/10 10:03:56;;;;;;;11.90;4.78;;;21.70;93.70;;;;;;5045511;28;20024;-77
2023/07/10 10:06:28;;;;;;;9.13;4.22;;;21.70;93.90;;;;;;5037480;28;20481;-78
2023/07/10 10:08:54;;;;;;;9.02;4.20;;;21.70;94.50;;;;;;5035072;28;20025;-77
2023/07/10 10:11:43;;;;;;;8.52;3.90;;;21.70;93.50;;;;;;5039321;28;20040;-77
2023/07/10 10:14:15;;;;;;;11.60;3.92;;;21.70;93.60;;;;;;5040639;28;20363;-79
2023/07/10 10:16:56;;;;;;;8.25;4.32;;;21.70;93.90;;;;;;5044677;28;20021;-78
2023/07/10 10:19:24;;;;;;;11.85;4.22;;;21.70;93.60;;;;;;5029388;28;20112;-92
2023/07/10 10:21:50;;;;;;;5.30;3.75;;;22.30;97.50;;;;;;5026529;28;20053;-91
2023/07/10 10:24:16;;;;;;;5.90;3.53;;;22.60;97.10;;;;;;5025686;28;20045;-92
2023/07/10 10:26:50;;;;;;;9.57;4.35;;;23.00;96.40;;;;;;5028470;28;20462;-92
2023/07/10 10:29:34;;;;;;;19.38;4.47;;;23.20;95.90;;;;;;5027652;28;20075;-91
2023/07/10 10:32:28;;;;;;;5.63;4.50;;;23.30;95.80;;;;;;5030375;28;20454;-93
2023/07/10 10:35:19;;;;;;;13.10;4.43;;;23.50;96.10;;;;;;5028865;28;20093;-92
2023/07/10 10:38:18;;;;;;;10.50;4.50;;;23.60;94.90;;;;;;5024477;28;20052;-92
2023/07/10 10:40:50;;;;;;;6.88;3.58;;;23.50;96.20;;;;;;5024410;28;20060;-92
2023/07/10 10:43:33;;;;;;;6.53;3.88;;;23.60;95.60;;;;;;5025146;28;20017;-91
2023/07/10 10:46:19;;;;;;;6.43;3.10;;;23.60;95.40;;;;;;5024665;28;20029;-88
2023/07/10 10:49:16;;;;;;;9.07;3.95;;;23.70;94.70;;;;;;5029148;28;20466;-88
2023/07/10 10:52:09;;;;;;;3.67;2.33;;;23.80;95.00;;;;;;5026389;28;20861;-87
2023/07/10 10:54:44;;;;;;;8.23;4.43;;;23.90;94.30;;;;;;5025628;28;20021;-89
2023/07/10 10:57:32;;;;;;;11.30;2.95;;;23.70;93.90;;;;;;5028212;28;20045;-84
2023/07/10 11:00:27;;;;;;;14.60;3.38;;;23.80;94.10;;;;;;5011934;28;20159;-91
2023/07/10 11:03:17;;;;;;;8.40;4.40;;;23.60;94.10;;;;;;5023445;28;20053;-89
2023/07/10 11:05:47;;;;;;;8.75;3.90;;;23.50;95.00;;;;;;5025223;28;20109;-91
2023/07/10 11:08:24;;;;;;;5.07;3.85;;;23.40;95.30;;;;;;5026098;28;20014;-92
2023/07/10 11:10:52;;;;;;;7.35;3.42;;;23.40;95.20;;;;;;5030170;28;20021;-92
2023/07/10 11:13:35;;;;;;;7.97;4.03;;;23.50;94.90;;;;;;5026785;28;20017;-91
2023/07/10 11:16:06;;;;;;;5.47;3.75;;;23.60;95.20;;;;;;5024650;28;20036;-91
2023/07/10 11:18:33;;;;;;;11.23;4.30;;;23.70;94.60;;;;;;5024249;28;20025;-88
2023/07/10 11:21:01;;;;;;;7.15;3.08;;;23.80;94.70;;;;;;5028297;28;20022;-92
2023/07/10 11:23:45;;;;;;;7.13;3.83;;;24.00;94.60;;;;;;5024313;28;20021;-89
2023/07/10 11:26:15;;;;;;;7.88;4.80;;;24.10;93.90;;;;;;5030266;28;20059;-90
2023/07/10 11:29:01;;;;;;;;;;;24.00;94.70;;;;;;5029799;28;20119;-90
2023/07/10 11:31:30;;;;;;;18.85;3.90;;;23.90;95.00;;;;;;5032157;28;19905;-90
2023/07/10 11:34:05;;;;;;;10.53;4.33;;;24.00;94.10;;;;;;5035012;28;20481;-85
2023/07/10 11:36:33;;;;;;;15.50;3.85;;;24.20;93.90;;;;;;5028460;28;20671;-87
2023/07/10 11:39:05;;;;;;;12.00;4.10;;;24.10;93.80;;;;;;5032335;28;20108;-90
2023/07/10 11:41:33;;;;;;;11.88;4.55;;;24.10;94.30;;;;;;5032712;28;20029;-86
2023/07/10 11:44:14;;;;;;;10.02;4.60;;;24.30;93.60;;;;;;5025207;28;20031;-85
2023/07/10 11:47:10;;;;;;;13.43;4.40;;;24.40;94.20;;;;;;5035445;28;20140;-87
2023/07/10 11:49:41;;;;;;;9.35;3.95;;;24.30;94.20;;;;;;5046026;28;20100;-87
2023/07/10 11:52:13;;;;;;;6.65;4.32;;;24.30;94.40;;;;;;5031365;28;20021;-86
2023/07/10 11:54:45;;;;;;;6.60;4.47;;;24.20;94.90;;;;;;5033455;28;20025;-86
2023/07/10 11:57:19;;;;;;;6.35;4.03;;;24.30;95.30;;;;;;5023491;28;20497;-85
2023/07/10 11:59:50;;;;;;;10.80;4.57;;;24.40;95.00;;;;;;5027836;28;20024;-86
2023/07/10 12:02:23;;;;;;;5.10;3.60;;;24.20;95.30;;;;;;5032017;28;20075;-83
2023/07/10 12:04:49;;;;;;;9.02;4.30;;;24.40;93.60;;;;;;5024451;28;20485;-89
2023/07/10 12:07:15;;;;;;;8.52;4.90;;;24.30;93.60;;;;;;5021447;28;20029;-86
2023/07/10 12:09:41;;;;;;;8.98;3.58;;;24.30;93.10;;;;;;5022780;28;20025;-83
2023/07/10 12:12:11;;;;;;;5.65;3.28;;;24.40;92.60;;;;;;5022602;28;20051;-84
2023/07/10 12:14:37;;;;;;;8.68;4.40;;;24.40;91.70;;;;;;5022828;28;20040;-88
2023/07/10 12:17:10;;;;;;;8.07;4.60;;;24.20;92.40;;;;;;5047919;28;20025;-89
2023/07/10 12:19:37;;;;;;;8.30;3.95;;;24.10;93.00;;;;;;5031175;28;20028;-86
2023/07/10 12:22:24;;;;;;;8.90;3.58;;;24.10;92.80;;;;;;5052774;28;20082;-87
2023/07/10 12:24:54;;;;;;;7.63;4.20;;;24.10;91.80;;;;;;5048276;28;20044;-89
2023/07/10 12:27:20;;;;;;;5.00;3.30;;;24.10;92.00;;;;;;5040986;28;20528;-88
2023/07/10 12:29:50;;;;;;;7.60;3.67;;;24.20;92.00;;;;;;5040856;28;20119;-86
2023/07/10 12:32:16;;;;;;;7.75;4.05;;;24.40;93.40;;;;;;5044912;28;20130;-89
2023/07/10 12:34:42;;;;;;;9.27;4.55;;;24.60;92.90;;;;;;5046617;28;20811;-89
2023/07/10 12:37:10;;;;;;;10.05;3.83;;;24.50;92.20;;;;;;5051877;28;20033;-87
2023/07/10 12:39:36;;;;;;;11.85;4.25;;;24.30;92.20;;;;;;5047135;28;20036;-84
2023/07/10 12:42:02;;;;;;;7.40;3.88;;;24.30;91.90;;;;;;5051571;28;20020;-88
2023/07/10 12:44:30;;;;;;;7.20;3.60;;;24.30;91.40;;;;;;5052905;28;20020;-87
2023/07/10 12:47:08;;;;;;;6.78;3.45;;;24.40;91.00;;;;;;5054688;28;20051;-87
2023/07/10 12:49:35;;;;;;;9.18;3.38;;;24.50;87.30;;;;;;5046692;28;20454;-87
2023/07/10 12:52:04;;;;;;;5.18;3.03;;;24.60;85.00;;;;;;5052573;28;20409;-86
2023/07/10 12:54:46;;;;;;;4.03;2.70;;;24.60;80.90;;;;;;5049441;28;20027;-86
2023/07/10 12:57:16;;;;;;;7.45;3.08;;;24.70;77.80;;;;;;5065328;28;20044;-85